CRB7 weather

Cardinal Aviation Seaplane Base
Rivière Blanche, Quebec, Canada

Public forecast

Using degrees Celsius for public forecast. Weather courtesy of forecast.io.

Closest aviation weather report (METAR) to Cardinal Aviation Seaplane Base

Report is more than 2 hours old.

Closest report is Ottawa / Gatineau Airport, 3.1 nm (5.8 km) ESE. Retrieved 2020/02/22 02:00 UTC (5 hours ago):

CYND 220200Z 23012G18KT 15SM SKC M03/M10 A3005 RMK LAST STFD OBS/NEXT 221200 UTC PRESFR SLP183

Closest aviation forecast (TAF) to Cardinal Aviation Seaplane Base

Forecast is more than 6 hours old.

Closest forecast is Ottawa / Gatineau Airport, 3.1 nm (5.8 km) ESE. Retrieved 2020-02-22 00:00 UTC (7 hours ago):

TAF CYND 212339Z 2200/2202 23010G20KT P6SM SKC RMK NXT FCST WILL BE ISSUED AT 221345Z